Terminal Aerodrome Forecast
Issued by NWS Grand Forks, ND

Home | Current Version | Previous Version | Text Only | Print | Product List | Glossary Off
Versions: 1 2 3 4 5 6 7 8 9 10 11 12 13 14 15 16 17 18 19 20

000
FTUS43 KFGF 232100 AAA
TAFFAR
TAF AMD
KFAR 232140Z 2322/2418 33017KT P6SM OVC004
     FM240900 33008KT P6SM OVC005=

USA.gov is the U.S. government's official web portal to all federal, state and local government web resources and services.